createdAt,value
2018-07-14T00:00:34.606Z,0.00
2018-07-14T00:01:13.572Z,0.00
2018-07-14T00:02:13.571Z,0.00
2018-07-14T00:03:13.572Z,0.00
2018-07-14T00:04:13.576Z,0.00
2018-07-14T00:05:13.591Z,0.00
2018-07-14T00:06:34.634Z,0.00
2018-07-14T00:07:13.566Z,0.00
2018-07-14T00:08:13.560Z,0.00
2018-07-14T00:09:13.564Z,0.00
2018-07-14T00:10:13.574Z,0.00
2018-07-14T00:11:13.560Z,0.00
2018-07-14T00:12:34.572Z,0.00
2018-07-14T00:13:13.570Z,0.00
2018-07-14T00:14:13.634Z,0.00
2018-07-14T00:15:13.604Z,0.00
2018-07-14T00:16:13.573Z,0.00
2018-07-14T00:17:13.618Z,0.00
2018-07-14T00:18:34.574Z,0.00
2018-07-14T00:19:13.553Z,0.00
2018-07-14T00:20:13.569Z,0.00
2018-07-14T00:21:13.545Z,0.00
2018-07-14T00:22:13.564Z,0.00
2018-07-14T00:23:13.547Z,0.00
2018-07-14T00:24:34.566Z,0.00
2018-07-14T00:25:13.551Z,0.00
2018-07-14T00:26:13.544Z,0.00
2018-07-14T00:27:13.542Z,0.00
2018-07-14T00:28:13.539Z,0.00
2018-07-14T00:29:13.557Z,0.00
2018-07-14T00:30:34.545Z,0.00
2018-07-14T00:31:13.555Z,0.00
2018-07-14T00:32:13.568Z,0.00
2018-07-14T00:33:13.546Z,0.00
2018-07-14T00:34:13.534Z,0.00
2018-07-14T00:35:13.546Z,0.00
2018-07-14T00:36:34.537Z,0.00
2018-07-14T00:37:13.531Z,0.00
2018-07-14T00:38:13.565Z,0.00
2018-07-14T00:39:13.561Z,0.00
2018-07-14T00:40:13.540Z,0.00
2018-07-14T00:41:13.539Z,0.00
2018-07-14T00:42:34.531Z,0.00
2018-07-14T00:43:13.517Z,0.00
2018-07-14T00:44:13.519Z,0.00
2018-07-14T00:45:13.580Z,0.00
2018-07-14T00:46:13.517Z,0.00
2018-07-14T00:47:13.529Z,0.00
2018-07-14T00:48:34.542Z,0.00
2018-07-14T00:49:13.509Z,0.00
2018-07-14T00:50:13.514Z,0.00
2018-07-14T00:51:13.515Z,0.00
2018-07-14T00:52:13.516Z,0.00
2018-07-14T00:53:13.511Z,0.00
2018-07-14T00:54:34.537Z,0.00
2018-07-14T00:55:13.519Z,0.00
2018-07-14T00:56:13.508Z,0.00
2018-07-14T00:57:13.506Z,0.00
2018-07-14T00:58:13.505Z,0.00
2018-07-14T00:59:13.499Z,0.00
2018-07-14T01:00:34.509Z,0.00
2018-07-14T01:01:13.511Z,0.00
2018-07-14T01:02:13.497Z,0.00
2018-07-14T01:03:13.499Z,0.00
2018-07-14T01:04:13.493Z,0.00
2018-07-14T01:05:13.506Z,0.00
2018-07-14T01:06:34.518Z,0.00
2018-07-14T01:07:13.492Z,0.00
2018-07-14T01:08:16.403Z,0.00
2018-07-14T01:09:13.504Z,0.00
2018-07-14T01:10:13.484Z,0.00
2018-07-14T01:11:13.499Z,0.00
2018-07-14T01:12:34.512Z,0.00
2018-07-14T01:13:13.478Z,0.00
2018-07-14T01:14:13.477Z,0.00
2018-07-14T01:15:13.499Z,0.00
2018-07-14T01:16:13.474Z,0.00
2018-07-14T01:17:13.522Z,0.00
2018-07-14T01:18:34.479Z,0.00
2018-07-14T01:19:13.481Z,0.00
2018-07-14T01:20:13.473Z,0.00
2018-07-14T01:21:13.487Z,0.00
2018-07-14T01:22:13.461Z,0.00
2018-07-14T01:23:13.471Z,0.00
2018-07-14T01:24:34.534Z,0.00
2018-07-14T01:25:13.472Z,0.00
2018-07-14T01:26:13.490Z,0.00
2018-07-14T01:27:13.452Z,0.00
2018-07-14T01:28:13.451Z,0.00
2018-07-14T01:29:13.455Z,0.00
2018-07-14T01:30:34.460Z,0.00
2018-07-14T02:05:23.234Z,0.00
2018-07-14T02:06:23.211Z,0.00
2018-07-14T02:08:16.153Z,0.00
2018-07-14T02:09:16.132Z,0.00
2018-07-14T02:11:09.111Z,0.00
2018-07-14T02:12:09.088Z,0.00
2018-07-14T02:14:02.064Z,0.00
2018-07-14T02:15:02.044Z,0.00
2018-07-14T02:16:02.056Z,0.00
2018-07-14T02:17:02.040Z,0.00
2018-07-14T02:18:02.035Z,0.00
2018-07-14T02:19:02.033Z,0.00
2018-07-14T02:20:02.022Z,0.00
2018-07-14T02:21:02.029Z,0.00
2018-07-14T02:22:02.022Z,0.00
2018-07-14T02:23:02.029Z,0.00
2018-07-14T02:24:02.016Z,0.00
2018-07-14T02:25:02.017Z,0.00
2018-07-14T02:26:02.011Z,0.00
2018-07-14T02:27:02.013Z,0.00
2018-07-14T02:28:02.010Z,0.00
2018-07-14T02:29:02.009Z,0.00
2018-07-14T02:30:02.006Z,0.00
2018-07-14T02:31:02.012Z,0.00
2018-07-14T02:32:02.017Z,0.00
2018-07-14T02:33:02.005Z,0.00
2018-07-14T02:34:01.996Z,0.00
2018-07-14T02:35:02.008Z,0.00
2018-07-14T02:36:01.992Z,0.00
2018-07-14T02:37:01.994Z,0.00
2018-07-14T02:38:02.002Z,0.00
2018-07-14T02:39:02.000Z,0.00
2018-07-14T02:40:01.988Z,0.00
2018-07-14T02:41:02.008Z,0.00
2018-07-14T02:42:01.985Z,0.00
2018-07-14T02:43:01.982Z,0.00
2018-07-14T02:44:01.982Z,0.00
2018-07-14T02:45:01.995Z,0.00
2018-07-14T02:46:01.982Z,0.00
2018-07-14T02:47:01.972Z,0.00
2018-07-14T02:48:01.983Z,0.00
2018-07-14T02:49:01.978Z,0.00
2018-07-14T02:50:01.977Z,0.00
2018-07-14T02:51:01.967Z,0.00
2018-07-14T02:52:01.971Z,0.00
2018-07-14T02:53:01.969Z,0.00
2018-07-14T02:54:01.973Z,0.00
2018-07-14T02:55:01.974Z,0.00
2018-07-14T02:56:01.963Z,0.00
2018-07-14T02:57:01.971Z,0.00
2018-07-14T02:58:01.960Z,0.00
2018-07-14T02:59:01.960Z,0.00
2018-07-14T03:00:01.952Z,0.00
2018-07-14T03:01:01.956Z,0.00
2018-07-14T03:02:01.959Z,0.00
2018-07-14T03:03:01.955Z,4.00
2018-07-14T03:04:01.957Z,4.00
2018-07-14T03:05:01.951Z,0.00
2018-07-14T03:06:01.948Z,4.00
2018-07-14T03:07:01.947Z,4.00
2018-07-14T03:08:01.943Z,8.00
2018-07-14T03:09:01.944Z,4.00
2018-07-14T03:10:01.939Z,8.00
2018-07-14T03:11:01.944Z,8.00
2018-07-14T03:12:01.947Z,12.00
2018-07-14T03:13:01.939Z,12.00
2018-07-14T03:14:01.936Z,16.00
2018-07-14T03:15:01.932Z,20.00
2018-07-14T03:16:01.942Z,20.00
2018-07-14T03:17:01.942Z,24.00
2018-07-14T03:18:01.929Z,32.00
2018-07-14T03:19:01.927Z,32.00
2018-07-14T03:20:01.925Z,40.00
2018-07-14T03:21:01.927Z,44.00
2018-07-14T03:22:01.927Z,56.00
2018-07-14T03:23:01.921Z,64.00
2018-07-14T03:24:01.920Z,72.00
2018-07-14T03:25:01.926Z,80.00
2018-07-14T03:26:01.912Z,96.00
2018-07-14T03:27:01.931Z,108.00
2018-07-14T03:28:01.917Z,116.00
2018-07-14T03:29:01.910Z,132.00
2018-07-14T03:30:01.907Z,144.00
2018-07-14T03:31:01.913Z,156.00
2018-07-14T03:32:01.905Z,172.00
2018-07-14T03:33:01.901Z,188.00
2018-07-14T03:34:01.907Z,208.00
2018-07-14T03:35:01.899Z,228.00
2018-07-14T03:36:01.903Z,252.00
2018-07-14T03:37:01.916Z,280.00
2018-07-14T03:38:01.896Z,312.00
2018-07-14T03:39:01.890Z,340.00
2018-07-14T03:40:01.895Z,372.00
2018-07-14T03:41:01.895Z,404.00
2018-07-14T03:42:01.956Z,436.00
2018-07-14T03:43:01.899Z,468.00
2018-07-14T03:44:01.884Z,516.00
2018-07-14T03:45:01.885Z,568.00
2018-07-14T03:46:01.880Z,620.00
2018-07-14T03:47:01.875Z,684.00
2018-07-14T03:48:01.877Z,744.00
2018-07-14T03:49:01.868Z,796.00
2018-07-14T03:50:01.873Z,848.00
2018-07-14T03:51:01.872Z,908.00
2018-07-14T03:52:01.863Z,976.00
2018-07-14T03:53:01.896Z,1044.00
2018-07-14T03:54:01.867Z,1104.00
2018-07-14T03:55:01.861Z,1160.00
2018-07-14T03:56:01.862Z,1200.00
2018-07-14T03:57:01.896Z,1220.00
2018-07-14T03:58:01.858Z,1224.00
2018-07-14T03:59:01.858Z,1216.00
2018-07-14T04:00:01.852Z,1240.00
2018-07-14T04:01:01.854Z,1300.00
2018-07-14T04:02:01.872Z,1388.00
2018-07-14T04:03:01.851Z,1488.00
2018-07-14T04:04:01.885Z,1576.00
2018-07-14T04:05:01.851Z,1688.00
2018-07-14T04:06:01.842Z,1800.00
2018-07-14T04:07:01.842Z,1880.00
2018-07-14T04:08:01.841Z,1900.00
2018-07-14T04:09:01.831Z,1896.00
2018-07-14T04:10:01.840Z,1928.00
2018-07-14T04:11:01.835Z,1972.00
2018-07-14T04:12:01.835Z,2004.00
2018-07-14T04:13:01.830Z,2072.00
2018-07-14T04:14:01.827Z,2164.00
2018-07-14T04:15:01.825Z,2208.00
2018-07-14T04:16:01.825Z,2184.00
2018-07-14T04:17:01.823Z,2112.00
2018-07-14T04:18:01.821Z,2036.00
2018-07-14T04:19:01.826Z,1944.00
2018-07-14T04:20:01.824Z,1876.00
2018-07-14T04:21:01.819Z,1868.00
2018-07-14T04:22:01.815Z,1968.00
2018-07-14T04:23:01.816Z,2100.00
2018-07-14T04:24:01.812Z,2208.00
2018-07-14T04:25:01.817Z,2240.00
2018-07-14T04:26:01.806Z,2208.00
2018-07-14T04:27:01.807Z,2200.00
2018-07-14T04:28:01.807Z,2232.00
2018-07-14T04:29:01.820Z,2304.00
2018-07-14T04:30:01.819Z,2404.00
2018-07-14T04:31:01.800Z,2548.00
2018-07-14T04:32:01.877Z,2692.00
2018-07-14T04:33:01.800Z,2812.00
2018-07-14T04:34:01.794Z,2924.00
2018-07-14T04:35:01.794Z,3064.00
2018-07-14T04:36:01.797Z,3204.00
2018-07-14T04:37:01.783Z,3328.00
2018-07-14T04:38:01.789Z,3472.00
2018-07-14T04:39:01.789Z,3644.00
2018-07-14T04:40:01.782Z,3836.00
2018-07-14T04:41:01.783Z,4028.00
2018-07-14T04:42:01.781Z,4212.00
2018-07-14T04:43:01.780Z,4308.00
2018-07-14T04:44:01.778Z,4300.00
2018-07-14T04:45:01.783Z,4304.00
2018-07-14T04:46:01.782Z,4392.00
2018-07-14T04:47:01.775Z,4632.00
2018-07-14T04:48:01.777Z,4664.00
2018-07-14T04:49:01.770Z,5040.00
2018-07-14T04:50:01.767Z,5104.00
2018-07-14T04:51:01.768Z,5316.00
2018-07-14T04:52:01.764Z,5488.00
2018-07-14T04:53:01.802Z,5608.00
2018-07-14T04:54:01.772Z,5668.00
2018-07-14T04:55:01.758Z,5576.00
2018-07-14T04:56:01.761Z,5408.00
2018-07-14T04:57:01.766Z,5084.00
2018-07-14T04:58:01.760Z,4900.00
2018-07-14T04:59:01.758Z,4720.00
2018-07-14T05:00:01.761Z,4640.00
2018-07-14T05:01:01.763Z,4652.00
2018-07-14T05:02:01.757Z,4636.00
2018-07-14T05:03:01.754Z,4644.00
2018-07-14T05:04:01.788Z,4652.00
2018-07-14T05:05:01.756Z,4676.00
2018-07-14T05:06:01.776Z,4728.00
2018-07-14T05:07:01.756Z,4816.00
2018-07-14T05:08:01.752Z,4908.00
2018-07-14T05:09:01.751Z,5004.00
2018-07-14T05:10:01.745Z,5084.00
2018-07-14T05:11:01.746Z,5168.00
2018-07-14T05:12:01.743Z,5260.00
2018-07-14T05:13:01.753Z,5368.00
2018-07-14T05:14:01.756Z,5552.00
2018-07-14T05:15:01.740Z,5676.00
2018-07-14T05:16:01.744Z,6444.00
2018-07-14T05:17:01.743Z,6580.00
2018-07-14T05:18:01.742Z,6588.00
2018-07-14T05:19:01.740Z,6568.00
2018-07-14T05:20:01.757Z,6644.00
2018-07-14T05:21:01.736Z,6776.00
2018-07-14T05:22:01.750Z,6888.00
2018-07-14T05:23:01.740Z,6968.00
2018-07-14T05:24:01.752Z,7096.00
2018-07-14T05:25:01.729Z,7208.00
2018-07-14T05:26:01.725Z,7332.00
2018-07-14T05:27:01.755Z,7460.00
2018-07-14T05:28:01.765Z,7588.00
2018-07-14T05:29:01.784Z,7684.00
2018-07-14T05:30:01.744Z,7760.00
2018-07-14T05:31:01.737Z,7812.00
2018-07-14T05:32:01.748Z,7864.00
2018-07-14T05:33:01.741Z,7908.00
2018-07-14T05:34:01.770Z,7936.00
2018-07-14T05:35:01.741Z,7968.00
2018-07-14T05:36:01.775Z,7984.00
2018-07-14T05:37:01.745Z,8036.00
2018-07-14T05:38:01.740Z,8140.00
2018-07-14T05:39:01.774Z,8280.00
2018-07-14T05:40:01.773Z,8464.00
2018-07-14T05:41:01.775Z,8696.00
2018-07-14T05:42:01.770Z,8972.00
2018-07-14T05:43:01.778Z,9340.00
2018-07-14T05:44:01.838Z,9836.00
2018-07-14T05:45:01.743Z,10332.00
2018-07-14T05:46:01.735Z,10680.00
2018-07-14T05:47:01.739Z,10920.00
2018-07-14T05:48:01.748Z,11192.00
2018-07-14T05:49:02.508Z,11536.00
2018-07-14T05:50:02.510Z,11764.00
2018-07-14T05:51:02.511Z,11824.00
2018-07-14T05:52:01.759Z,11852.00
2018-07-14T05:53:01.760Z,11776.00
2018-07-14T05:54:01.736Z,11536.00
2018-07-14T05:55:02.506Z,10992.00
2018-07-14T05:56:01.755Z,9980.00
2018-07-14T05:57:01.748Z,9000.00
2018-07-14T05:58:01.744Z,8648.00
2018-07-14T05:59:01.788Z,8480.00
2018-07-14T06:00:01.804Z,8296.00
2018-07-14T06:01:01.749Z,8200.00
2018-07-14T06:02:01.751Z,8112.00
2018-07-14T06:03:01.788Z,8072.00
2018-07-14T06:04:01.783Z,8896.00
2018-07-14T06:05:01.794Z,8020.00
2018-07-14T06:06:01.747Z,8084.00
2018-07-14T06:07:01.796Z,9188.00
2018-07-14T06:08:01.794Z,8196.00
2018-07-14T06:09:01.765Z,8952.00
2018-07-14T06:10:01.802Z,8820.00
2018-07-14T06:11:01.778Z,9980.00
2018-07-14T06:12:01.768Z,10232.00
2018-07-14T06:13:02.606Z,10344.00
2018-07-14T06:14:01.814Z,10612.00
2018-07-14T06:15:01.779Z,11036.00
2018-07-14T06:16:01.780Z,11432.00
2018-07-14T06:17:01.780Z,11980.00
2018-07-14T06:18:01.820Z,12540.00
2018-07-14T06:19:01.801Z,13236.00
2018-07-14T06:20:01.849Z,13872.00
2018-07-14T06:21:01.794Z,14124.00
2018-07-14T06:22:01.821Z,14208.00
2018-07-14T06:23:01.825Z,14416.00
2018-07-14T06:24:01.805Z,14644.00
2018-07-14T06:25:01.805Z,14744.00
2018-07-14T06:26:01.814Z,14924.00
2018-07-14T06:27:01.838Z,15220.00
2018-07-14T06:28:01.812Z,15136.00
2018-07-14T06:29:01.815Z,14020.00
2018-07-14T06:30:01.835Z,13992.00
2018-07-14T06:31:01.872Z,13644.00
2018-07-14T06:32:01.865Z,12752.00
2018-07-14T06:33:01.852Z,11984.00
2018-07-14T06:34:01.854Z,11516.00
2018-07-14T06:35:01.877Z,10656.00
2018-07-14T06:36:01.840Z,12152.00
2018-07-14T06:37:01.894Z,13232.00
2018-07-14T06:38:01.892Z,13348.00
2018-07-14T06:39:01.892Z,13364.00
2018-07-14T06:40:01.901Z,13384.00
2018-07-14T06:41:01.899Z,13184.00
2018-07-14T06:42:01.852Z,12540.00
2018-07-14T06:43:01.864Z,13040.00
2018-07-14T06:44:01.932Z,13068.00
2018-07-14T06:45:01.865Z,12592.00
2018-07-14T06:46:02.620Z,14524.00
2018-07-14T06:47:01.870Z,15516.00
2018-07-14T06:48:01.871Z,16736.00
2018-07-14T06:49:01.876Z,18112.00
2018-07-14T06:50:01.953Z,19072.00
2018-07-14T06:51:01.882Z,19616.00
2018-07-14T06:52:01.887Z,19776.00
2018-07-14T06:53:01.898Z,19648.00
2018-07-14T06:54:01.897Z,19104.00
2018-07-14T06:55:01.929Z,18592.00
2018-07-14T06:56:01.902Z,17664.00
2018-07-14T06:57:01.919Z,15216.00
2018-07-14T06:58:01.912Z,13724.00
2018-07-14T06:59:01.921Z,15204.00
2018-07-14T07:00:01.924Z,14864.00
2018-07-14T07:01:01.937Z,13296.00
2018-07-14T07:02:01.947Z,10700.00
2018-07-14T07:03:01.947Z,10632.00
2018-07-14T07:04:01.952Z,10736.00
2018-07-14T07:05:01.989Z,11064.00
2018-07-14T07:06:01.970Z,11404.00
2018-07-14T07:07:01.957Z,13924.00
2018-07-14T07:08:01.970Z,14616.00
2018-07-14T07:09:01.982Z,15536.00
2018-07-14T07:10:01.987Z,23328.00
2018-07-14T07:11:02.009Z,40032.00
2018-07-14T07:12:01.999Z,49632.00
2018-07-14T07:13:02.008Z,52448.00
2018-07-14T07:14:01.999Z,56512.00
2018-07-14T07:15:02.005Z,58368.00
2018-07-14T07:16:02.012Z,58784.00
2018-07-14T07:17:02.019Z,58080.00
2018-07-14T07:18:02.040Z,57536.00
2018-07-14T07:19:02.039Z,58208.00
2018-07-14T07:20:02.045Z,56032.00
2018-07-14T07:21:02.043Z,53408.00
2018-07-14T07:22:02.079Z,56256.00
2018-07-14T07:23:02.058Z,59808.00
2018-07-14T07:24:02.122Z,57824.00
2018-07-14T07:25:02.105Z,57888.00
2018-07-14T07:26:02.127Z,60864.00
2018-07-14T07:27:02.123Z,59264.00
2018-07-14T07:28:02.113Z,59200.00
2018-07-14T07:29:02.119Z,59872.00
2018-07-14T07:30:02.177Z,61312.00
2018-07-14T07:31:02.189Z,64192.00
2018-07-14T07:32:02.164Z,64864.00
2018-07-14T07:33:02.229Z,59808.00
2018-07-14T07:34:02.239Z,60928.00
2018-07-14T07:35:02.286Z,66496.00
2018-07-14T07:36:02.238Z,69792.00
2018-07-14T07:37:02.289Z,73312.00
2018-07-14T07:38:02.240Z,69024.00
2018-07-14T07:39:02.252Z,65408.00
2018-07-14T07:40:02.255Z,74976.00
2018-07-14T07:41:02.285Z,74304.00
2018-07-14T07:42:02.329Z,71584.00
2018-07-14T07:43:02.331Z,75808.00
2018-07-14T07:44:02.342Z,74112.00
2018-07-14T07:45:02.376Z,71936.00
2018-07-14T07:46:02.375Z,69696.00
2018-07-14T07:47:02.409Z,75680.00
2018-07-14T07:48:02.407Z,75776.00
2018-07-14T07:49:02.411Z,69312.00
2018-07-14T07:50:02.474Z,73024.00
2018-07-14T07:51:02.481Z,76288.00
2018-07-14T07:52:02.493Z,75712.00
2018-07-14T07:53:02.460Z,70688.00
2018-07-14T07:54:02.545Z,75936.00
2018-07-14T07:55:02.488Z,81792.00
2018-07-14T07:56:02.567Z,75360.00
2018-07-14T07:57:02.518Z,73184.00
2018-07-14T07:58:02.538Z,77824.00
2018-07-14T07:59:02.556Z,83904.00
2018-07-14T08:00:02.577Z,81472.00
2018-07-14T08:01:02.590Z,77920.00
2018-07-14T08:02:02.606Z,83616.00
2018-07-14T08:03:02.629Z,80416.00
2018-07-14T08:04:02.652Z,81504.00
2018-07-14T08:05:02.655Z,80032.00
2018-07-14T08:06:02.678Z,75648.00
2018-07-14T08:07:02.691Z,70272.00
2018-07-14T08:08:02.722Z,70144.00
2018-07-14T08:09:02.750Z,81376.00
2018-07-14T08:10:02.746Z,86656.00
2018-07-14T08:11:02.756Z,83296.00
2018-07-14T08:12:02.777Z,77504.00
2018-07-14T08:13:02.795Z,72256.00
2018-07-14T08:14:02.812Z,81856.00
2018-07-14T08:15:02.831Z,86944.00
2018-07-14T08:16:02.889Z,80960.00
2018-07-14T08:17:02.874Z,76704.00
2018-07-14T08:18:02.889Z,74912.00
2018-07-14T08:19:02.905Z,80544.00
2018-07-14T08:20:02.925Z,81760.00
2018-07-14T08:21:02.976Z,79744.00
2018-07-14T08:22:02.994Z,79488.00
2018-07-14T08:23:03.044Z,84832.00
2018-07-14T08:24:03.033Z,86304.00
2018-07-14T08:25:03.018Z,82752.00
2018-07-14T08:26:03.051Z,81184.00
2018-07-14T08:27:03.051Z,79552.00
2018-07-14T08:28:03.071Z,79904.00
2018-07-14T08:29:03.143Z,83072.00
2018-07-14T08:30:03.153Z,80288.00
2018-07-14T08:31:03.155Z,74528.00
2018-07-14T08:32:03.149Z,77248.00
2018-07-14T08:33:03.177Z,80000.00
2018-07-14T08:34:03.194Z,79328.00
2018-07-14T08:35:03.207Z,79744.00
2018-07-14T08:36:03.224Z,76160.00
2018-07-14T08:37:03.248Z,70912.00
2018-07-14T08:38:03.276Z,71168.00
2018-07-14T08:39:03.292Z,73888.00
2018-07-14T08:40:03.311Z,75008.00
2018-07-14T08:41:03.349Z,72864.00
2018-07-14T08:42:03.362Z,75840.00
2018-07-14T08:43:03.386Z,80096.00
2018-07-14T08:44:03.393Z,80416.00
2018-07-14T08:45:03.457Z,81536.00
2018-07-14T08:46:03.464Z,80960.00
2018-07-14T08:47:03.464Z,81920.00
2018-07-14T08:48:03.472Z,90720.00
2018-07-14T08:49:03.525Z,94560.00
2018-07-14T08:50:03.534Z,94880.00
2018-07-14T08:51:03.568Z,98176.00
2018-07-14T08:52:03.568Z,101920.00
2018-07-14T08:53:03.602Z,98848.00
2018-07-14T08:54:03.579Z,101856.00
2018-07-14T08:55:03.640Z,111744.00
2018-07-14T08:56:03.625Z,113376.00
2018-07-14T08:57:03.646Z,110816.00
2018-07-14T08:58:03.734Z,109568.00
2018-07-14T08:59:03.688Z,105088.00
2018-07-14T09:00:03.702Z,100480.00
2018-07-14T09:01:03.740Z,104608.00
2018-07-14T09:02:03.744Z,107456.00
2018-07-14T09:03:03.772Z,104800.00
2018-07-14T09:04:03.797Z,102656.00
2018-07-14T09:05:03.919Z,103360.00
2018-07-14T09:06:03.850Z,105024.00
2018-07-14T09:07:03.847Z,112416.00
2018-07-14T09:08:03.877Z,114560.00
2018-07-14T09:09:04.595Z,106912.00
2018-07-14T09:10:03.959Z,104768.00
2018-07-14T09:11:04.605Z,106560.00
2018-07-14T09:12:04.641Z,105408.00
2018-07-14T09:13:07.117Z,104160.00
2018-07-14T09:14:04.174Z,97568.00
2018-07-14T09:15:04.198Z,101920.00
2018-07-14T09:16:04.128Z,108448.00
2018-07-14T09:17:04.068Z,106144.00
2018-07-14T09:18:04.129Z,102496.00
2018-07-14T09:19:04.144Z,99968.00
2018-07-14T09:20:04.160Z,106144.00
2018-07-14T09:21:04.178Z,112672.00
2018-07-14T09:22:04.202Z,100000.00
2018-07-14T09:23:04.212Z,86048.00
2018-07-14T09:24:05.096Z,83424.00
2018-07-14T09:25:04.253Z,85888.00
2018-07-14T09:26:04.344Z,86336.00
2018-07-14T09:27:04.298Z,85920.00
2018-07-14T09:28:04.330Z,77376.00
2018-07-14T09:29:04.426Z,67712.00
2018-07-14T09:30:04.369Z,69248.00
2018-07-14T09:31:04.668Z,75168.00
2018-07-14T09:32:04.407Z,76000.00
2018-07-14T09:33:04.433Z,70720.00
2018-07-14T09:34:04.447Z,67456.00
2018-07-14T09:35:04.481Z,69696.00
2018-07-14T09:36:04.503Z,72160.00
2018-07-14T09:37:04.519Z,76096.00
2018-07-14T09:38:04.619Z,71456.00
2018-07-14T09:39:04.558Z,69504.00
2018-07-14T09:40:05.083Z,75584.00
2018-07-14T09:41:04.603Z,76864.00
2018-07-14T09:42:04.649Z,75360.00
2018-07-14T09:43:04.655Z,76800.00
2018-07-14T09:44:04.765Z,71360.00
2018-07-14T09:45:04.688Z,70336.00
2018-07-14T09:46:04.753Z,72736.00
2018-07-14T09:47:04.725Z,80160.00
2018-07-14T09:48:05.509Z,83360.00
2018-07-14T09:49:05.503Z,82720.00
2018-07-14T09:50:04.795Z,79296.00
2018-07-14T09:51:04.810Z,76832.00
2018-07-14T09:52:04.841Z,79424.00
2018-07-14T09:53:04.853Z,75296.00
2018-07-14T09:54:04.932Z,73504.00
2018-07-14T09:55:04.964Z,75232.00
2018-07-14T09:56:04.919Z,81856.00
2018-07-14T09:57:04.936Z,78080.00
2018-07-14T09:58:04.954Z,73792.00
2018-07-14T09:59:04.968Z,74752.00
2018-07-14T10:00:04.992Z,78368.00
2018-07-14T10:01:05.033Z,81984.00
2018-07-14T10:02:05.035Z,78336.00
2018-07-14T10:03:05.980Z,76256.00
2018-07-14T10:04:05.098Z,80128.00
2018-07-14T10:05:05.096Z,81408.00
2018-07-14T10:06:05.147Z,82080.00
2018-07-14T10:07:05.127Z,79520.00
2018-07-14T10:08:05.166Z,78560.00
2018-07-14T10:09:05.172Z,79040.00
2018-07-14T10:10:05.303Z,82880.00
2018-07-14T10:11:05.211Z,87168.00
2018-07-14T10:12:05.227Z,86336.00
2018-07-14T10:13:05.260Z,86496.00
2018-07-14T10:14:05.274Z,90784.00
2018-07-14T10:15:05.431Z,88736.00
2018-07-14T10:16:05.319Z,85344.00
2018-07-14T10:17:05.336Z,88672.00
2018-07-14T10:18:05.360Z,85664.00
2018-07-14T10:19:05.391Z,84000.00
2018-07-14T10:20:05.392Z,91008.00
2018-07-14T10:21:05.411Z,95264.00
2018-07-14T10:22:05.437Z,95968.00
2018-07-14T10:23:05.449Z,96480.00
2018-07-14T10:24:05.482Z,84256.00
2018-07-14T10:25:05.545Z,87712.00
2018-07-14T10:26:05.545Z,91424.00
2018-07-14T10:27:05.543Z,87584.00
2018-07-14T10:28:05.561Z,83776.00
2018-07-14T10:29:05.612Z,83840.00
2018-07-14T10:30:05.610Z,87424.00
2018-07-14T10:31:05.626Z,94176.00
2018-07-14T10:32:05.638Z,93376.00
2018-07-14T10:33:05.670Z,92768.00
2018-07-14T10:34:05.737Z,94208.00
2018-07-14T10:35:05.713Z,91264.00
2018-07-14T10:36:05.732Z,88704.00
2018-07-14T10:37:05.750Z,90912.00
2018-07-14T10:38:05.852Z,86240.00
2018-07-14T10:39:05.788Z,80992.00
2018-07-14T10:40:05.804Z,81664.00
2018-07-14T10:41:05.929Z,81280.00
2018-07-14T10:42:05.880Z,85600.00
2018-07-14T10:43:05.878Z,96960.00
2018-07-14T10:44:05.968Z,97664.00
2018-07-14T10:45:05.915Z,90048.00
2018-07-14T10:46:05.942Z,89120.00
2018-07-14T10:47:05.979Z,91584.00
2018-07-14T10:48:05.983Z,90240.00
2018-07-14T10:49:06.004Z,85824.00
2018-07-14T10:50:06.022Z,86144.00
2018-07-14T10:51:06.043Z,89280.00
2018-07-14T10:52:06.063Z,90432.00
2018-07-14T10:53:06.080Z,85952.00
2018-07-14T10:54:06.107Z,88320.00
2018-07-14T10:55:06.135Z,91104.00
2018-07-14T10:56:06.159Z,97120.00
2018-07-14T10:57:06.175Z,97344.00
2018-07-14T10:58:06.222Z,93664.00
2018-07-14T10:59:06.210Z,16568.00
2018-07-14T11:00:06.237Z,84544.00
2018-07-14T11:01:06.249Z,90944.00
2018-07-14T11:02:06.274Z,91872.00
2018-07-14T11:03:06.292Z,93984.00
2018-07-14T11:04:06.313Z,97344.00
2018-07-14T11:05:06.347Z,100064.00
2018-07-14T11:06:06.356Z,97984.00
2018-07-14T11:07:06.378Z,95296.00
2018-07-14T11:08:06.401Z,97760.00
2018-07-14T11:09:06.419Z,99808.00
2018-07-14T11:10:06.479Z,101024.00
2018-07-14T11:11:06.464Z,99744.00
2018-07-14T11:12:06.551Z,94784.00
2018-07-14T11:13:06.497Z,93536.00
2018-07-14T11:14:06.520Z,100192.00
2018-07-14T11:15:06.540Z,86240.00
2018-07-14T11:16:06.563Z,93376.00
2018-07-14T11:17:06.579Z,91232.00
2018-07-14T11:18:06.601Z,90976.00
2018-07-14T11:19:06.624Z,99328.00
2018-07-14T11:20:06.645Z,100128.00
2018-07-14T11:21:06.666Z,105568.00
2018-07-14T11:22:06.681Z,103200.00
2018-07-14T11:23:06.703Z,88640.00
2018-07-14T11:24:06.728Z,73504.00
2018-07-14T11:25:06.746Z,77792.00
2018-07-14T11:26:06.767Z,86368.00
2018-07-14T11:27:06.786Z,92576.00
2018-07-14T11:28:06.804Z,30272.00
2018-07-14T11:29:06.829Z,93792.00
2018-07-14T11:30:06.847Z,90272.00
2018-07-14T11:31:06.864Z,86208.00
2018-07-14T11:32:06.880Z,86016.00
2018-07-14T11:33:06.901Z,22496.00
2018-07-14T11:34:06.928Z,70304.00
2018-07-14T11:35:06.936Z,82624.00
2018-07-14T11:36:06.957Z,79104.00
2018-07-14T11:37:06.976Z,80704.00
2018-07-14T11:38:06.993Z,73952.00
2018-07-14T11:39:07.010Z,72800.00
2018-07-14T11:40:07.031Z,71520.00
2018-07-14T11:41:07.048Z,73376.00
2018-07-14T11:42:07.132Z,82656.00
2018-07-14T11:43:07.082Z,75552.00
2018-07-14T11:44:07.099Z,22336.00
2018-07-14T11:45:07.117Z,27456.00
2018-07-14T11:46:07.132Z,68288.00
2018-07-14T11:47:07.153Z,61472.00
2018-07-14T11:48:07.168Z,66880.00
2018-07-14T11:49:07.186Z,71456.00
2018-07-14T11:50:07.204Z,60096.00
2018-07-14T11:51:07.222Z,56384.00
2018-07-14T11:52:07.237Z,42496.00
2018-07-14T11:53:07.252Z,43808.00
2018-07-14T11:54:07.275Z,60800.00
2018-07-14T11:55:07.278Z,52448.00
2018-07-14T11:56:07.301Z,33120.00
2018-07-14T11:57:07.314Z,56704.00
2018-07-14T11:58:07.330Z,42592.00
2018-07-14T11:59:07.351Z,36064.00
2018-07-14T12:00:07.384Z,27776.00
2018-07-14T12:01:07.393Z,32864.00
2018-07-14T12:02:07.504Z,38464.00
2018-07-14T12:03:07.427Z,47904.00
2018-07-14T12:04:07.425Z,53920.00
2018-07-14T12:05:07.440Z,74272.00
2018-07-14T12:06:07.456Z,66080.00
2018-07-14T12:07:07.471Z,67616.00
2018-07-14T12:08:07.474Z,68032.00
2018-07-14T12:09:07.499Z,64960.00
2018-07-14T12:10:07.518Z,72256.00
2018-07-14T12:11:07.528Z,74528.00
2018-07-14T12:12:07.546Z,80832.00
2018-07-14T12:13:07.564Z,84032.00
2018-07-14T12:14:07.578Z,79200.00
2018-07-14T12:15:08.423Z,80224.00
2018-07-14T12:16:07.610Z,79328.00
2018-07-14T12:17:07.622Z,76032.00
2018-07-14T12:18:07.643Z,66112.00
2018-07-14T12:19:07.660Z,76480.00
2018-07-14T12:20:07.673Z,84800.00
2018-07-14T12:21:07.692Z,80000.00
2018-07-14T12:22:07.709Z,73056.00
2018-07-14T12:23:07.728Z,70656.00
2018-07-14T12:24:07.744Z,65216.00
2018-07-14T12:25:07.760Z,61088.00
2018-07-14T12:26:07.793Z,71744.00
2018-07-14T12:27:07.839Z,74272.00
2018-07-14T12:28:07.836Z,73440.00
2018-07-14T12:29:07.832Z,75296.00
2018-07-14T12:30:07.914Z,83008.00
2018-07-14T12:31:07.870Z,86368.00
2018-07-14T12:32:07.886Z,68416.00
2018-07-14T12:33:07.904Z,83584.00
2018-07-14T12:34:07.926Z,86592.00
2018-07-14T12:35:07.948Z,91008.00
2018-07-14T12:36:07.956Z,92192.00
2018-07-14T12:37:07.973Z,63424.00
2018-07-14T12:38:07.989Z,73632.00
2018-07-14T12:39:08.007Z,86304.00
2018-07-14T12:40:08.024Z,71328.00
2018-07-14T12:41:08.037Z,30720.00
2018-07-14T12:42:08.065Z,15352.00
2018-07-14T12:43:08.073Z,14792.00
2018-07-14T12:44:08.092Z,15300.00
2018-07-14T12:45:08.107Z,15240.00